sensor_id;sensor_type;location;lat;lon;timestamp;pressure;altitude;pressure_sealevel;temperature;humidity
62895;BME280;49204;44.916;37.998;2023-02-21T00:00:56;101135.33;;;0.37;71.49
62895;BME280;49204;44.916;37.998;2023-02-21T00:03:42;101125.02;;;0.44;71.63
62895;BME280;49204;44.916;37.998;2023-02-21T00:06:28;101129.84;;;0.52;71.79
62895;BME280;49204;44.916;37.998;2023-02-21T00:09:13;101118.23;;;0.58;71.83
62895;BME280;49204;44.916;37.998;2023-02-21T00:11:59;101103.55;;;0.60;71.35
62895;BME280;49204;44.916;37.998;2023-02-21T00:14:45;101094.45;;;0.57;70.60
62895;BME280;49204;44.916;37.998;2023-02-21T00:17:31;101077.22;;;0.59;70.83
62895;BME280;49204;44.916;37.998;2023-02-21T00:20:17;101073.33;;;0.62;71.00
62895;BME280;49204;44.916;37.998;2023-02-21T00:23:03;101071.61;;;0.64;71.19
62895;BME280;49204;44.916;37.998;2023-02-21T00:25:48;101059.53;;;0.66;71.31
62895;BME280;49204;44.916;37.998;2023-02-21T00:28:34;101053.53;;;0.73;71.38
62895;BME280;49204;44.916;37.998;2023-02-21T00:31:22;101048.44;;;0.86;71.10
62895;BME280;49204;44.916;37.998;2023-02-21T00:34:07;101052.38;;;0.95;70.94
62895;BME280;49204;44.916;37.998;2023-02-21T00:36:54;101052.87;;;1.08;70.58
62895;BME280;49204;44.916;37.998;2023-02-21T00:39:39;101044.28;;;1.19;70.46
62895;BME280;49204;44.916;37.998;2023-02-21T00:42:25;101038.68;;;1.27;70.24
62895;BME280;49204;44.916;37.998;2023-02-21T00:45:11;101042.19;;;1.35;70.10
62895;BME280;49204;44.916;37.998;2023-02-21T00:47:57;101045.66;;;1.43;70.13
62895;BME280;49204;44.916;37.998;2023-02-21T00:50:43;101040.08;;;1.50;69.75
62895;BME280;49204;44.916;37.998;2023-02-21T00:53:29;101043.97;;;1.54;69.59
62895;BME280;49204;44.916;37.998;2023-02-21T00:56:14;101053.52;;;1.59;69.50
62895;BME280;49204;44.916;37.998;2023-02-21T00:59:00;101043.58;;;1.63;69.42
62895;BME280;49204;44.916;37.998;2023-02-21T01:01:45;101034.05;;;1.69;69.26
62895;BME280;49204;44.916;37.998;2023-02-21T01:04:31;101031.05;;;1.76;68.72
62895;BME280;49204;44.916;37.998;2023-02-21T01:07:17;101034.94;;;1.82;68.87
62895;BME280;49204;44.916;37.998;2023-02-21T01:10:04;101034.09;;;1.89;69.13
62895;BME280;49204;44.916;37.998;2023-02-21T01:12:50;101019.39;;;1.95;68.68
62895;BME280;49204;44.916;37.998;2023-02-21T01:15:36;101016.79;;;2.02;68.79
62895;BME280;49204;44.916;37.998;2023-02-21T01:18:21;101016.36;;;2.06;68.94
62895;BME280;49204;44.916;37.998;2023-02-21T01:21:10;101003.80;;;2.08;69.13
62895;BME280;49204;44.916;37.998;2023-02-21T01:23:53;100989.53;;;2.07;68.95
62895;BME280;49204;44.916;37.998;2023-02-21T01:26:38;100984.34;;;2.05;69.19
62895;BME280;49204;44.916;37.998;2023-02-21T01:29:25;100977.84;;;2.04;68.75
62895;BME280;49204;44.916;37.998;2023-02-21T01:32:10;100972.20;;;2.06;69.00
62895;BME280;49204;44.916;37.998;2023-02-21T01:34:55;100961.81;;;2.06;68.75
62895;BME280;49204;44.916;37.998;2023-02-21T01:37:41;100962.70;;;2.05;68.72
62895;BME280;49204;44.916;37.998;2023-02-21T01:40:27;100951.87;;;2.07;69.01
62895;BME280;49204;44.916;37.998;2023-02-21T01:43:20;100947.53;;;2.09;68.99
62895;BME280;49204;44.916;37.998;2023-02-21T01:46:10;100941.91;;;2.12;68.64
62895;BME280;49204;44.916;37.998;2023-02-21T01:48:56;100936.69;;;2.17;68.86
62895;BME280;49204;44.916;37.998;2023-02-21T01:51:43;100925.87;;;2.24;68.86
62895;BME280;49204;44.916;37.998;2023-02-21T01:54:30;100921.95;;;2.35;68.80
62895;BME280;49204;44.916;37.998;2023-02-21T01:57:16;100918.03;;;2.41;69.14
62895;BME280;49204;44.916;37.998;2023-02-21T02:00:03;100904.59;;;2.46;69.28
62895;BME280;49204;44.916;37.998;2023-02-21T02:02:52;100894.61;;;2.53;68.93
62895;BME280;49204;44.916;37.998;2023-02-21T02:05:38;100900.59;;;2.70;68.19
62895;BME280;49204;44.916;37.998;2023-02-21T02:08:26;100891.85;;;2.88;67.81
62895;BME280;49204;44.916;37.998;2023-02-21T02:16:53;100879.09;;;3.22;66.98
62895;BME280;49204;44.916;37.998;2023-02-21T02:24:54;100875.89;;;3.44;66.56
62895;BME280;49204;44.916;37.998;2023-02-21T02:27:26;100867.63;;;3.47;66.37
62895;BME280;49204;44.916;37.998;2023-02-21T02:29:56;100873.23;;;3.52;66.25
62895;BME280;49204;44.916;37.998;2023-02-21T02:37:34;100847.11;;;3.61;66.78
62895;BME280;49204;44.916;37.998;2023-02-21T02:40:16;100838.44;;;3.63;66.74
62895;BME280;49204;44.916;37.998;2023-02-21T02:42:38;100854.02;;;3.65;66.63
62895;BME280;49204;44.916;37.998;2023-02-21T02:47:41;100856.59;;;3.71;67.82
62895;BME280;49204;44.916;37.998;2023-02-21T02:50:10;100837.67;;;3.51;69.92
62895;BME280;49204;44.916;37.998;2023-02-21T02:52:48;100840.44;;;3.29;71.80
62895;BME280;49204;44.916;37.998;2023-02-21T02:57:49;100807.22;;;3.02;72.77
62895;BME280;49204;44.916;37.998;2023-02-21T03:00:18;100809.46;;;2.95;73.97
62895;BME280;49204;44.916;37.998;2023-02-21T03:02:53;100807.73;;;2.91;74.50
62895;BME280;49204;44.916;37.998;2023-02-21T03:05:21;100795.61;;;2.92;74.65
62895;BME280;49204;44.916;37.998;2023-02-21T03:07:57;100792.97;;;2.93;75.16
62895;BME280;49204;44.916;37.998;2023-02-21T03:10:27;100776.51;;;2.94;75.72
62895;BME280;49204;44.916;37.998;2023-02-21T03:13:04;100755.69;;;2.97;75.98
62895;BME280;49204;44.916;37.998;2023-02-21T03:15:34;100766.94;;;3.01;77.25
62895;BME280;49204;44.916;37.998;2023-02-21T03:18:07;100764.30;;;3.02;76.89
62895;BME280;49204;44.916;37.998;2023-02-21T03:20:34;100746.09;;;3.02;76.77
62895;BME280;49204;44.916;37.998;2023-02-21T03:23:03;100747.83;;;3.03;77.07
62895;BME280;49204;44.916;37.998;2023-02-21T03:25:32;100739.16;;;3.04;76.94
62895;BME280;49204;44.916;37.998;2023-02-21T03:28:02;100726.11;;;3.06;77.64
62895;BME280;49204;44.916;37.998;2023-02-21T03:30:31;100723.50;;;3.07;77.64
62895;BME280;49204;44.916;37.998;2023-02-21T03:32:59;100711.39;;;3.06;78.15
62895;BME280;49204;44.916;37.998;2023-02-21T03:35:28;100711.39;;;3.06;78.20
62895;BME280;49204;44.916;37.998;2023-02-21T03:37:56;100701.44;;;3.04;78.31
62895;BME280;49204;44.916;37.998;2023-02-21T03:40:27;100696.23;;;3.04;78.84
62895;BME280;49204;44.916;37.998;2023-02-21T03:42:56;100684.94;;;3.05;78.93
62895;BME280;49204;44.916;37.998;2023-02-21T03:45:24;100688.82;;;3.08;79.27
62895;BME280;49204;44.916;37.998;2023-02-21T03:48:00;100689.65;;;3.14;79.80
62895;BME280;49204;44.916;37.998;2023-02-21T03:50:29;100664.03;;;3.16;79.67
62895;BME280;49204;44.916;37.998;2023-02-21T03:52:57;100662.66;;;3.21;79.60
62895;BME280;49204;44.916;37.998;2023-02-21T03:55:26;100659.18;;;3.25;79.60
62895;BME280;49204;44.916;37.998;2023-02-21T03:57:54;100664.31;;;3.31;79.63
62895;BME280;49204;44.916;37.998;2023-02-21T04:00:22;100639.94;;;3.40;79.51
62895;BME280;49204;44.916;37.998;2023-02-21T04:02:51;100649.36;;;3.48;79.43
62895;BME280;49204;44.916;37.998;2023-02-21T04:05:30;100634.50;;;3.60;79.10
62895;BME280;49204;44.916;37.998;2023-02-21T04:07:59;100625.63;;;3.75;78.55
62895;BME280;49204;44.916;37.998;2023-02-21T04:10:26;100617.17;;;3.89;77.87
62895;BME280;49204;44.916;37.998;2023-02-21T04:12:55;100576.28;;;3.96;77.50
62895;BME280;49204;44.916;37.998;2023-02-21T04:15:23;100581.38;;;4.03;76.87
62895;BME280;49204;44.916;37.998;2023-02-21T04:17:51;100632.94;;;4.13;75.99
62895;BME280;49204;44.916;37.998;2023-02-21T04:20:19;100638.45;;;4.20;75.10
62895;BME280;49204;44.916;37.998;2023-02-21T04:22:49;100608.39;;;4.28;74.83
62895;BME280;49204;44.916;37.998;2023-02-21T04:25:17;100590.06;;;4.33;74.54
62895;BME280;49204;44.916;37.998;2023-02-21T04:27:47;100570.88;;;4.37;73.77
62895;BME280;49204;44.916;37.998;2023-02-21T04:30:14;100597.75;;;4.40;73.85
62895;BME280;49204;44.916;37.998;2023-02-21T04:32:43;100570.32;;;4.45;73.59
62895;BME280;49204;44.916;37.998;2023-02-21T04:35:12;100563.29;;;4.50;72.63
62895;BME280;49204;44.916;37.998;2023-02-21T04:37:41;100578.86;;;4.53;73.02
62895;BME280;49204;44.916;37.998;2023-02-21T04:40:11;100562.80;;;4.54;73.02
62895;BME280;49204;44.916;37.998;2023-02-21T04:42:39;100562.34;;;4.54;72.96
62895;BME280;49204;44.916;37.998;2023-02-21T04:45:07;100506.34;;;4.50;72.63
62895;BME280;49204;44.916;37.998;2023-02-21T04:47:35;100566.77;;;4.49;72.62
62895;BME280;49204;44.916;37.998;2023-02-21T04:50:03;100516.45;;;4.44;71.55
62895;BME280;49204;44.916;37.998;2023-02-21T04:52:32;100503.05;;;4.40;71.38
62895;BME280;49204;44.916;37.998;2023-02-21T04:54:59;100541.84;;;4.33;72.00
62895;BME280;49204;44.916;37.998;2023-02-21T04:57:27;100538.93;;;4.24;71.88
62895;BME280;49204;44.916;37.998;2023-02-21T04:59:56;100537.25;;;4.21;71.32
62895;BME280;49204;44.916;37.998;2023-02-21T05:02:24;100334.58;;;4.13;70.68
62895;BME280;49204;44.916;37.998;2023-02-21T05:04:52;100524.51;;;4.03;70.25
62895;BME280;49204;44.916;37.998;2023-02-21T05:07:20;100509.67;;;4.08;69.26
62895;BME280;49204;44.916;37.998;2023-02-21T05:09:48;100517.38;;;4.14;69.00
62895;BME280;49204;44.916;37.998;2023-02-21T05:12:16;100502.57;;;4.16;69.07
62895;BME280;49204;44.916;37.998;2023-02-21T05:14:43;100517.84;;;4.12;69.81
62895;BME280;49204;44.916;37.998;2023-02-21T05:17:11;100478.88;;;4.06;70.66
62895;BME280;49204;44.916;37.998;2023-02-21T05:19:39;100531.06;;;4.00;71.35
62895;BME280;49204;44.916;37.998;2023-02-21T05:22:07;100516.38;;;3.94;71.01
62895;BME280;49204;44.916;37.998;2023-02-21T05:24:39;100508.33;;;3.82;71.86
62895;BME280;49204;44.916;37.998;2023-02-21T05:27:05;100484.19;;;3.71;73.82
62895;BME280;49204;44.916;37.998;2023-02-21T05:29:34;100503.84;;;3.63;75.13
62895;BME280;49204;44.916;37.998;2023-02-21T05:32:02;100499.13;;;3.58;75.92
62895;BME280;49204;44.916;37.998;2023-02-21T05:34:30;100473.45;;;3.64;75.92
62895;BME280;49204;44.916;37.998;2023-02-21T05:36:58;100456.39;;;3.72;74.58
62895;BME280;49204;44.916;37.998;2023-02-21T05:39:25;100514.84;;;3.82;73.84
62895;BME280;49204;44.916;37.998;2023-02-21T05:41:53;100491.72;;;3.90;72.68
62895;BME280;49204;44.916;37.998;2023-02-21T05:44:21;100498.13;;;3.96;72.14
62895;BME280;49204;44.916;37.998;2023-02-21T05:46:48;100514.55;;;4.01;71.64
62895;BME280;49204;44.916;37.998;2023-02-21T05:49:16;100488.47;;;4.04;71.88
62895;BME280;49204;44.916;37.998;2023-02-21T05:51:44;100493.15;;;4.08;71.69
62895;BME280;49204;44.916;37.998;2023-02-21T05:54:16;100428.82;;;4.11;72.30
62895;BME280;49204;44.916;37.998;2023-02-21T05:56:44;100463.98;;;4.13;72.63
62895;BME280;49204;44.916;37.998;2023-02-21T05:59:12;100473.57;;;4.11;73.46
62895;BME280;49204;44.916;37.998;2023-02-21T06:01:40;100502.27;;;4.08;74.43
62895;BME280;49204;44.916;37.998;2023-02-21T06:04:08;100324.38;;;4.01;74.82
62895;BME280;49204;44.916;37.998;2023-02-21T06:06:36;100525.46;;;3.97;75.51
62895;BME280;49204;44.916;37.998;2023-02-21T06:09:04;100495.56;;;3.93;75.25
62895;BME280;49204;44.916;37.998;2023-02-21T06:11:32;100477.33;;;3.93;75.05
62895;BME280;49204;44.916;37.998;2023-02-21T06:14:01;100499.03;;;3.95;75.05
62895;BME280;49204;44.916;37.998;2023-02-21T06:16:32;100491.98;;;4.00;74.25
62895;BME280;49204;44.916;37.998;2023-02-21T06:19:00;100456.73;;;4.06;74.14
62895;BME280;49204;44.916;37.998;2023-02-21T06:21:28;100422.31;;;4.11;73.74
62895;BME280;49204;44.916;37.998;2023-02-21T06:23:56;100473.44;;;4.18;73.78
62895;BME280;49204;44.916;37.998;2023-02-21T06:26:24;100413.88;;;4.22;72.83
62895;BME280;49204;44.916;37.998;2023-02-21T06:28:52;100454.23;;;4.24;72.68
62895;BME280;49204;44.916;37.998;2023-02-21T06:31:20;100470.72;;;4.26;72.83
62895;BME280;49204;44.916;37.998;2023-02-21T06:33:48;100466.00;;;4.22;72.53
62895;BME280;49204;44.916;37.998;2023-02-21T06:36:23;100432.22;;;4.16;72.53
62895;BME280;49204;44.916;37.998;2023-02-21T06:38:46;100465.26;;;4.14;73.09
62895;BME280;49204;44.916;37.998;2023-02-21T06:41:17;100312.92;;;4.10;73.41
62895;BME280;49204;44.916;37.998;2023-02-21T06:43:45;100437.92;;;4.13;73.77
62895;BME280;49204;44.916;37.998;2023-02-21T06:46:17;100455.29;;;4.14;74.26
62895;BME280;49204;44.916;37.998;2023-02-21T06:48:45;100421.89;;;4.12;74.77
62895;BME280;49204;44.916;37.998;2023-02-21T06:51:14;100472.25;;;4.12;75.36
62895;BME280;49204;44.916;37.998;2023-02-21T06:53:43;100429.84;;;4.04;76.06
62895;BME280;49204;44.916;37.998;2023-02-21T06:56:11;100448.16;;;3.98;76.23
62895;BME280;49204;44.916;37.998;2023-02-21T06:58:39;100407.89;;;3.92;77.16
62895;BME280;49204;44.916;37.998;2023-02-21T07:01:07;100402.66;;;3.93;77.54
62895;BME280;49204;44.916;37.998;2023-02-21T07:03:37;100399.18;;;3.93;77.38
62895;BME280;49204;44.916;37.998;2023-02-21T07:06:04;100403.95;;;3.95;77.89
62895;BME280;49204;44.916;37.998;2023-02-21T07:08:32;100388.20;;;4.01;78.22
62895;BME280;49204;44.916;37.998;2023-02-21T07:10:59;100366.45;;;4.02;78.79
62895;BME280;49204;44.916;37.998;2023-02-21T07:13:27;100362.98;;;4.03;78.86
62895;BME280;49204;44.916;37.998;2023-02-21T07:15:55;100383.30;;;4.08;79.30
62895;BME280;49204;44.916;37.998;2023-02-21T07:18:23;100372.78;;;4.13;79.38
62895;BME280;49204;44.916;37.998;2023-02-21T07:20:50;100405.26;;;4.19;79.79
62895;BME280;49204;44.916;37.998;2023-02-21T07:23:18;100405.97;;;4.27;80.34
62895;BME280;49204;44.916;37.998;2023-02-21T07:25:46;100387.65;;;4.32;80.74
62895;BME280;49204;44.916;37.998;2023-02-21T07:28:13;100377.97;;;4.37;80.94
62895;BME280;49204;44.916;37.998;2023-02-21T07:30:41;100401.25;;;4.46;80.81
62895;BME280;49204;44.916;37.998;2023-02-21T07:33:09;100388.12;;;4.52;81.25
62895;BME280;49204;44.916;37.998;2023-02-21T07:35:37;100374.97;;;4.57;81.55
62895;BME280;49204;44.916;37.998;2023-02-21T07:38:04;100358.34;;;4.62;81.31
62895;BME280;49204;44.916;37.998;2023-02-21T07:40:32;100317.81;;;4.69;81.41
62895;BME280;49204;44.916;37.998;2023-02-21T07:43:00;100246.82;;;4.74;81.20
62895;BME280;49204;44.916;37.998;2023-02-21T07:45:28;100339.27;;;4.81;81.36
62895;BME280;49204;44.916;37.998;2023-02-21T07:47:56;100327.88;;;4.86;82.05
62895;BME280;49204;44.916;37.998;2023-02-21T07:50:23;100353.42;;;4.91;81.65
62895;BME280;49204;44.916;37.998;2023-02-21T07:52:51;100302.84;;;4.96;81.70
62895;BME280;49204;44.916;37.998;2023-02-21T07:55:19;100348.84;;;5.00;81.96
62895;BME280;49204;44.916;37.998;2023-02-21T07:57:47;100317.50;;;5.02;82.21
62895;BME280;49204;44.916;37.998;2023-02-21T08:00:15;100318.38;;;5.01;82.46
62895;BME280;49204;44.916;37.998;2023-02-21T08:02:46;100332.70;;;5.02;82.85
62895;BME280;49204;44.916;37.998;2023-02-21T08:05:17;100308.73;;;5.05;83.05
62895;BME280;49204;44.916;37.998;2023-02-21T08:07:45;100264.70;;;5.09;83.08
62895;BME280;49204;44.916;37.998;2023-02-21T08:10:19;100330.31;;;5.13;83.32
62895;BME280;49204;44.916;37.998;2023-02-21T08:12:42;100311.95;;;5.16;83.75
62895;BME280;49204;44.916;37.998;2023-02-21T08:15:10;100250.06;;;5.21;83.75
62895;BME280;49204;44.916;37.998;2023-02-21T08:17:38;100308.23;;;5.26;83.79
62895;BME280;49204;44.916;37.998;2023-02-21T08:20:06;100268.53;;;5.31;84.05
62895;BME280;49204;44.916;37.998;2023-02-21T08:22:35;100271.86;;;5.36;83.71
62895;BME280;49204;44.916;37.998;2023-02-21T08:25:03;100285.20;;;5.42;83.87
62895;BME280;49204;44.916;37.998;2023-02-21T08:27:31;100287.30;;;5.46;83.69
62895;BME280;49204;44.916;37.998;2023-02-21T08:29:58;100297.61;;;5.52;83.88
62895;BME280;49204;44.916;37.998;2023-02-21T08:32:26;100257.84;;;5.57;84.04
62895;BME280;49204;44.916;37.998;2023-02-21T08:34:54;100241.22;;;5.61;83.95
62895;BME280;49204;44.916;37.998;2023-02-21T08:37:22;100328.13;;;5.66;83.71
62895;BME280;49204;44.916;37.998;2023-02-21T08:39:50;100280.12;;;5.72;83.85
62895;BME280;49204;44.916;37.998;2023-02-21T08:42:18;100297.84;;;5.75;83.98
62895;BME280;49204;44.916;37.998;2023-02-21T08:44:47;100276.41;;;5.79;83.83
62895;BME280;49204;44.916;37.998;2023-02-21T08:47:15;100272.84;;;5.83;83.80
62895;BME280;49204;44.916;37.998;2023-02-21T08:49:46;100290.96;;;5.89;83.92
62895;BME280;49204;44.916;37.998;2023-02-21T08:52:15;100214.23;;;5.92;83.91
62895;BME280;49204;44.916;37.998;2023-02-21T08:54:43;100283.86;;;5.94;83.40
62895;BME280;49204;44.916;37.998;2023-02-21T08:57:11;100261.16;;;5.98;83.37
62895;BME280;49204;44.916;37.998;2023-02-21T08:59:39;100232.26;;;6.03;83.18
62895;BME280;49204;44.916;37.998;2023-02-21T09:02:18;100248.25;;;6.07;82.96
62895;BME280;49204;44.916;37.998;2023-02-21T09:04:38;100277.39;;;6.09;83.27
62895;BME280;49204;44.916;37.998;2023-02-21T09:07:06;100258.59;;;6.11;83.43
62895;BME280;49204;44.916;37.998;2023-02-21T09:09:36;100249.75;;;6.15;83.50
62895;BME280;49204;44.916;37.998;2023-02-21T09:12:03;100242.22;;;6.19;83.78
62895;BME280;49204;44.916;37.998;2023-02-21T09:14:33;100260.95;;;6.21;84.31
62895;BME280;49204;44.916;37.998;2023-02-21T09:17:01;100252.60;;;6.23;84.18
62895;BME280;49204;44.916;37.998;2023-02-21T09:19:29;100256.03;;;6.25;84.12
62895;BME280;49204;44.916;37.998;2023-02-21T09:21:57;100256.80;;;6.28;84.04
62895;BME280;49204;44.916;37.998;2023-02-21T09:24:25;100255.03;;;6.29;84.23
62895;BME280;49204;44.916;37.998;2023-02-21T09:26:54;100241.53;;;6.29;84.01
62895;BME280;49204;44.916;37.998;2023-02-21T09:29:24;100272.52;;;6.27;83.87
62895;BME280;49204;44.916;37.998;2023-02-21T09:31:51;100275.17;;;6.25;84.14
62895;BME280;49204;44.916;37.998;2023-02-21T09:34:19;100259.95;;;6.25;84.39
62895;BME280;49204;44.916;37.998;2023-02-21T09:36:48;100256.83;;;6.27;84.44
62895;BME280;49204;44.916;37.998;2023-02-21T09:39:17;100264.18;;;6.29;84.36
62895;BME280;49204;44.916;37.998;2023-02-21T09:41:45;100255.88;;;6.31;84.12
62895;BME280;49204;44.916;37.998;2023-02-21T09:44:20;100264.48;;;6.34;84.09
62895;BME280;49204;44.916;37.998;2023-02-21T09:46:44;100268.83;;;6.34;84.38
62895;BME280;49204;44.916;37.998;2023-02-21T09:49:23;100233.53;;;6.34;84.55
62895;BME280;49204;44.916;37.998;2023-02-21T09:51:43;100253.91;;;6.37;84.54
62895;BME280;49204;44.916;37.998;2023-02-21T09:54:25;100216.25;;;6.43;84.48
62895;BME280;49204;44.916;37.998;2023-02-21T09:56:52;100175.59;;;6.48;84.36
62895;BME280;49204;44.916;37.998;2023-02-21T09:59:21;100247.36;;;6.52;84.33
62895;BME280;49204;44.916;37.998;2023-02-21T10:01:55;100248.98;;;6.56;84.46
62895;BME280;49204;44.916;37.998;2023-02-21T10:04:25;100236.66;;;6.60;84.48
62895;BME280;49204;44.916;37.998;2023-02-21T10:17:31;100266.30;;;6.75;84.46
62895;BME280;49204;44.916;37.998;2023-02-21T10:20:07;100255.67;;;6.80;84.64
62895;BME280;49204;44.916;37.998;2023-02-21T10:22:34;100263.86;;;6.84;84.97
62895;BME280;49204;44.916;37.998;2023-02-21T10:25:11;100228.41;;;6.87;84.87
62895;BME280;49204;44.916;37.998;2023-02-21T10:27:31;100236.56;;;6.91;84.95
62895;BME280;49204;44.916;37.998;2023-02-21T10:30:05;100212.92;;;6.94;84.63
62895;BME280;49204;44.916;37.998;2023-02-21T10:32:30;100217.77;;;6.93;84.50
62895;BME280;49204;44.916;37.998;2023-02-21T10:34:59;100241.33;;;6.93;84.61
62895;BME280;49204;44.916;37.998;2023-02-21T10:37:40;100232.25;;;6.90;84.57
62895;BME280;49204;44.916;37.998;2023-02-21T10:43:17;100251.79;;;6.93;84.56
62895;BME280;49204;44.916;37.998;2023-02-21T10:45:26;100224.19;;;6.96;84.42
62895;BME280;49204;44.916;37.998;2023-02-21T10:47:57;100229.42;;;6.96;84.26
62895;BME280;49204;44.916;37.998;2023-02-21T10:53:21;100240.02;;;6.93;84.47
62895;BME280;49204;44.916;37.998;2023-02-21T10:55:38;100237.40;;;6.93;84.60
62895;BME280;49204;44.916;37.998;2023-02-21T10:58:07;100225.20;;;6.92;84.85
62895;BME280;49204;44.916;37.998;2023-02-21T11:00:39;100230.52;;;6.89;84.81
62895;BME280;49204;44.916;37.998;2023-02-21T11:05:52;100229.84;;;6.84;85.13
62895;BME280;49204;44.916;37.998;2023-02-21T11:08:38;100228.20;;;6.80;85.16
62895;BME280;49204;44.916;37.998;2023-02-21T11:11:01;100216.84;;;6.81;85.41
62895;BME280;49204;44.916;37.998;2023-02-21T11:13:29;100196.70;;;6.83;85.38
62895;BME280;49204;44.916;37.998;2023-02-21T11:16:14;100218.95;;;6.83;85.40
62895;BME280;49204;44.916;37.998;2023-02-21T11:18:41;100217.23;;;6.82;85.47
62895;BME280;49204;44.916;37.998;2023-02-21T11:21:14;100202.83;;;6.82;85.62
62895;BME280;49204;44.916;37.998;2023-02-21T11:24:01;100205.06;;;6.81;85.59
62895;BME280;49204;44.916;37.998;2023-02-21T11:26:09;100196.70;;;6.83;85.66
62895;BME280;49204;44.916;37.998;2023-02-21T11:28:38;100207.09;;;6.86;85.72
62895;BME280;49204;44.916;37.998;2023-02-21T11:31:17;100208.69;;;6.90;85.60
62895;BME280;49204;44.916;37.998;2023-02-21T11:33:42;100200.25;;;6.95;85.50
62895;BME280;49204;44.916;37.998;2023-02-21T11:36:13;100203.16;;;7.00;85.42
62895;BME280;49204;44.916;37.998;2023-02-21T11:38:42;100196.86;;;7.05;85.31
62895;BME280;49204;44.916;37.998;2023-02-21T11:43:45;100195.83;;;7.23;85.41
62895;BME280;49204;44.916;37.998;2023-02-21T11:46:35;100201.31;;;7.28;85.22
62895;BME280;49204;44.916;37.998;2023-02-21T11:49:00;100196.73;;;7.35;85.00
62895;BME280;49204;44.916;37.998;2023-02-21T11:51:48;100199.08;;;7.43;84.98
62895;BME280;49204;44.916;37.998;2023-02-21T11:54:15;100191.64;;;7.44;85.06
62895;BME280;49204;44.916;37.998;2023-02-21T11:56:47;100196.59;;;7.40;84.90
62895;BME280;49204;44.916;37.998;2023-02-21T12:01:51;100196.17;;;7.39;85.08
62895;BME280;49204;44.916;37.998;2023-02-21T12:09:26;100199.69;;;7.38;85.53
62895;BME280;49204;44.916;37.998;2023-02-21T12:14:40;100179.24;;;7.35;85.40
62895;BME280;49204;44.916;37.998;2023-02-21T12:22:42;100158.38;;;7.46;85.25
62895;BME280;49204;44.916;37.998;2023-02-21T12:25:10;100170.69;;;7.56;85.18
62895;BME280;49204;44.916;37.998;2023-02-21T12:30:10;100161.50;;;7.81;84.64
62895;BME280;49204;44.916;37.998;2023-02-21T12:43:10;100161.48;;;8.62;82.47
62895;BME280;49204;44.916;37.998;2023-02-21T12:45:45;100168.05;;;8.62;82.25
62895;BME280;49204;44.916;37.998;2023-02-21T12:48:26;100166.95;;;8.56;81.89
62895;BME280;49204;44.916;37.998;2023-02-21T12:50:53;100145.84;;;8.48;81.83
62895;BME280;49204;44.916;37.998;2023-02-21T12:53:34;100165.84;;;8.39;81.80
62895;BME280;49204;44.916;37.998;2023-02-21T12:56:23;100160.14;;;8.28;81.85
62895;BME280;49204;44.916;37.998;2023-02-21T12:58:50;100176.02;;;8.25;81.84
62895;BME280;49204;44.916;37.998;2023-02-21T13:01:20;100165.00;;;8.27;81.96
62895;BME280;49204;44.916;37.998;2023-02-21T13:08:57;100139.76;;;8.58;80.88
62895;BME280;49204;44.916;37.998;2023-02-21T13:11:40;100142.27;;;8.72;79.99
62895;BME280;49204;44.916;37.998;2023-02-21T13:14:12;100146.62;;;8.83;79.95
62895;BME280;49204;44.916;37.998;2023-02-21T13:16:39;100132.64;;;8.82;79.56
62895;BME280;49204;44.916;37.998;2023-02-21T13:19:08;100150.03;;;8.75;79.09
62895;BME280;49204;44.916;37.998;2023-02-21T13:29:27;100095.77;;;8.31;79.06
62895;BME280;49204;44.916;37.998;2023-02-21T13:32:07;100071.37;;;8.29;78.99
62895;BME280;49204;44.916;37.998;2023-02-21T13:34:27;100096.40;;;8.26;79.02
62895;BME280;49204;44.916;37.998;2023-02-21T13:36:59;100098.37;;;8.21;79.06
62895;BME280;49204;44.916;37.998;2023-02-21T13:39:28;100091.52;;;8.17;79.07
62895;BME280;49204;44.916;37.998;2023-02-21T13:42:16;100091.66;;;8.14;79.16
62895;BME280;49204;44.916;37.998;2023-02-21T13:44:30;100109.55;;;8.14;79.30
62895;BME280;49204;44.916;37.998;2023-02-21T13:46:59;100113.53;;;8.12;79.20
62895;BME280;49204;44.916;37.998;2023-02-21T13:57:39;100127.05;;;8.02;79.44
62895;BME280;49204;44.916;37.998;2023-02-21T14:06:22;100133.28;;;7.99;79.80
62895;BME280;49204;44.916;37.998;2023-02-21T14:08:09;100115.72;;;8.01;79.66
62895;BME280;49204;44.916;37.998;2023-02-21T14:10:38;100132.25;;;8.03;79.66
62895;BME280;49204;44.916;37.998;2023-02-21T14:15:48;100116.92;;;8.04;79.51
62895;BME280;49204;44.916;37.998;2023-02-21T14:18:21;100095.59;;;8.02;79.52
62895;BME280;49204;44.916;37.998;2023-02-21T14:20:49;100107.06;;;7.99;79.57
62895;BME280;49204;44.916;37.998;2023-02-21T14:23:18;100071.73;;;7.98;79.45
62895;BME280;49204;44.916;37.998;2023-02-21T14:25:53;100078.34;;;7.96;79.40
62895;BME280;49204;44.916;37.998;2023-02-21T14:31:06;100051.22;;;7.97;79.29
62895;BME280;49204;44.916;37.998;2023-02-21T14:33:35;100092.75;;;7.96;79.24
62895;BME280;49204;44.916;37.998;2023-02-21T14:36:09;100119.77;;;7.98;79.13
62895;BME280;49204;44.916;37.998;2023-02-21T14:38:38;100091.86;;;7.97;79.02
62895;BME280;49204;44.916;37.998;2023-02-21T14:43:54;100127.25;;;7.97;78.88
62895;BME280;49204;44.916;37.998;2023-02-21T14:46:40;100117.66;;;7.96;78.88
62895;BME280;49204;44.916;37.998;2023-02-21T14:51:59;100136.15;;;7.93;79.19
62895;BME280;49204;44.916;37.998;2023-02-21T14:57:16;100135.73;;;7.92;79.48
62895;BME280;49204;44.916;37.998;2023-02-21T15:05:29;100145.37;;;7.91;79.63
62895;BME280;49204;44.916;37.998;2023-02-21T15:08:19;100145.37;;;7.91;79.67
62895;BME280;49204;44.916;37.998;2023-02-21T15:10:26;100137.52;;;7.91;79.72
62895;BME280;49204;44.916;37.998;2023-02-21T15:12:56;100144.02;;;7.93;79.76